createdAt,value
2023-04-01T00:00:19.812Z,18.97
2023-04-01T00:00:51.211Z,18.93
2023-04-01T00:01:22.618Z,18.93
2023-04-01T00:01:54.005Z,18.94
2023-04-01T00:02:25.479Z,18.96
2023-04-01T00:02:56.998Z,18.95
2023-04-01T00:03:28.630Z,18.94
2023-04-01T00:04:00.226Z,18.95
2023-04-01T00:04:31.727Z,18.95
2023-04-01T00:05:03.370Z,18.92
2023-04-01T00:05:34.994Z,18.92
2023-04-01T00:06:06.491Z,18.93
2023-04-01T00:06:37.892Z,18.94
2023-04-01T00:07:09.302Z,18.93
2023-04-01T00:07:40.716Z,18.92
2023-04-01T00:08:12.131Z,18.93
2023-04-01T00:08:43.528Z,18.92
2023-04-01T00:09:14.921Z,18.94
2023-04-01T00:09:46.299Z,18.93
2023-04-01T00:10:17.690Z,18.93
2023-04-01T00:10:49.124Z,18.93
2023-04-01T00:11:20.777Z,18.92
2023-04-01T00:11:52.248Z,18.93
2023-04-01T00:12:23.643Z,18.91
2023-04-01T00:12:55.037Z,18.90
2023-04-01T00:13:26.450Z,18.88
2023-04-01T00:13:57.856Z,18.90
2023-04-01T00:14:29.251Z,18.89
2023-04-01T00:15:00.719Z,18.89
2023-04-01T00:15:32.346Z,18.89
2023-04-01T00:16:04.060Z,18.90
2023-04-01T00:16:41.375Z,18.89
2023-04-01T00:17:12.837Z,18.90
2023-04-01T00:17:44.273Z,18.90
2023-04-01T00:18:15.745Z,18.90
2023-04-01T00:18:47.182Z,18.89
2023-04-01T00:19:18.586Z,18.89
2023-04-01T00:19:49.985Z,18.89
2023-04-01T00:20:21.394Z,18.89
2023-04-01T00:20:52.795Z,18.89
2023-04-01T00:21:24.217Z,18.88
2023-04-01T00:21:55.665Z,18.85
2023-04-01T00:22:27.077Z,18.88
2023-04-01T00:22:58.476Z,18.87
2023-04-01T00:23:29.862Z,18.85
2023-04-01T00:24:01.270Z,18.86
2023-04-01T00:24:32.662Z,18.85
2023-04-01T00:25:04.046Z,18.86
2023-04-01T00:25:35.661Z,18.86
2023-04-01T00:26:07.120Z,18.86
2023-04-01T00:26:38.551Z,18.87
2023-04-01T00:27:09.979Z,18.85
2023-04-01T00:27:41.383Z,18.85
2023-04-01T00:28:12.784Z,18.84
2023-04-01T00:28:44.187Z,18.83
2023-04-01T00:29:15.598Z,18.83
2023-04-01T00:29:47.006Z,18.81
2023-04-01T00:30:18.408Z,18.82
2023-04-01T00:30:49.825Z,18.83
2023-04-01T00:31:21.278Z,18.82
2023-04-01T00:31:52.712Z,18.83
2023-04-01T00:32:24.267Z,18.85
2023-04-01T00:32:55.741Z,18.84
2023-04-01T00:33:27.161Z,18.83
2023-04-01T00:33:58.549Z,18.83
2023-04-01T00:34:29.945Z,18.84
2023-04-01T00:35:01.411Z,18.82
2023-04-01T00:35:33.044Z,18.83
2023-04-01T00:36:04.651Z,18.81
2023-04-01T00:36:36.094Z,18.81
2023-04-01T00:37:07.524Z,18.79
2023-04-01T00:37:38.981Z,18.79
2023-04-01T00:38:10.378Z,18.79
2023-04-01T00:38:41.796Z,18.79
2023-04-01T00:39:13.213Z,18.77
2023-04-01T00:39:44.635Z,18.78
2023-04-01T00:40:16.052Z,18.76
2023-04-01T00:40:47.465Z,18.79
2023-04-01T00:41:18.868Z,18.79
2023-04-01T00:41:50.257Z,18.79
2023-04-01T00:42:21.648Z,18.78
2023-04-01T00:42:53.087Z,18.79
2023-04-01T00:43:24.504Z,18.75
2023-04-01T00:43:55.920Z,18.77
2023-04-01T00:44:27.326Z,18.77
2023-04-01T00:44:58.748Z,18.77
2023-04-01T00:45:30.268Z,18.76
2023-04-01T00:46:01.754Z,18.74
2023-04-01T00:46:33.210Z,18.74
2023-04-01T00:47:04.744Z,18.74
2023-04-01T00:47:36.231Z,18.75
2023-04-01T00:48:07.758Z,18.75
2023-04-01T00:48:39.218Z,18.75
2023-04-01T00:49:10.639Z,18.75
2023-04-01T00:49:42.049Z,18.75
2023-04-01T00:50:13.445Z,18.74
2023-04-01T00:50:44.868Z,18.74
2023-04-01T00:51:16.291Z,18.73
2023-04-01T00:51:47.697Z,18.73
2023-04-01T00:52:19.098Z,18.73
2023-04-01T00:52:50.495Z,18.73
2023-04-01T00:53:21.939Z,18.72
2023-04-01T00:53:53.358Z,18.72
2023-04-01T00:54:24.771Z,18.72
2023-04-01T00:54:56.174Z,18.73
2023-04-01T00:55:27.571Z,18.72
2023-04-01T00:55:58.995Z,18.73
2023-04-01T00:56:30.390Z,18.72
2023-04-01T00:57:01.908Z,18.71
2023-04-01T00:57:33.430Z,18.70
2023-04-01T00:58:04.856Z,18.72
2023-04-01T00:58:36.294Z,18.71
2023-04-01T00:59:07.688Z,18.72
2023-04-01T00:59:39.094Z,18.71
2023-04-01T01:00:10.500Z,18.72
2023-04-01T01:00:41.943Z,18.70
2023-04-01T01:01:13.445Z,18.70
2023-04-01T01:01:44.898Z,18.69
2023-04-01T01:02:16.407Z,18.70
2023-04-01T01:02:47.984Z,18.70
2023-04-01T01:03:19.546Z,18.68
2023-04-01T01:03:51.015Z,18.69
2023-04-01T01:04:22.439Z,18.70
2023-04-01T01:04:53.844Z,18.68
2023-04-01T01:05:25.561Z,18.68
2023-04-01T01:05:57.689Z,18.69
2023-04-01T01:06:29.095Z,18.69
2023-04-01T01:07:00.523Z,18.67
2023-04-01T01:07:31.934Z,18.68
2023-04-01T01:08:03.346Z,18.68
2023-04-01T01:08:34.743Z,18.67
2023-04-01T01:09:06.199Z,18.66
2023-04-01T01:09:37.616Z,18.68
2023-04-01T01:10:09.026Z,18.66
2023-04-01T01:10:40.422Z,18.66
2023-04-01T01:11:11.818Z,18.66
2023-04-01T01:11:44.120Z,18.67
2023-04-01T01:12:15.665Z,18.66
2023-04-01T01:12:47.067Z,18.65
2023-04-01T01:13:18.482Z,18.66
2023-04-01T01:13:49.893Z,18.66
2023-04-01T01:14:21.334Z,18.64
2023-04-01T01:14:52.761Z,18.63
2023-04-01T01:15:24.178Z,18.64
2023-04-01T01:15:55.584Z,18.63
2023-04-01T01:16:27.016Z,18.65
2023-04-01T01:16:58.760Z,18.63
2023-04-01T01:17:30.274Z,18.63
2023-04-01T01:18:01.793Z,18.62
2023-04-01T01:18:33.221Z,18.63
2023-04-01T01:19:04.615Z,18.63
2023-04-01T01:19:36.056Z,18.62
2023-04-01T01:20:12.747Z,18.63
2023-04-01T01:20:54.315Z,18.60
2023-04-01T01:21:25.719Z,18.62
2023-04-01T01:21:57.134Z,18.63
2023-04-01T01:22:28.568Z,18.63
2023-04-01T01:22:59.971Z,18.63
2023-04-01T01:23:31.389Z,18.63
2023-04-01T01:24:02.791Z,18.61
2023-04-01T01:24:34.220Z,18.61
2023-04-01T01:25:05.666Z,18.60
2023-04-01T01:25:37.088Z,18.60
2023-04-01T01:26:08.500Z,18.61
2023-04-01T01:26:39.919Z,18.60
2023-04-01T01:27:11.344Z,18.61
2023-04-01T01:27:42.753Z,18.60
2023-04-01T01:28:14.152Z,18.60
2023-04-01T01:28:45.542Z,18.59
2023-04-01T01:29:16.937Z,18.58
2023-04-01T01:29:48.349Z,18.57
2023-04-01T01:30:19.782Z,18.59
2023-04-01T01:30:51.294Z,18.58
2023-04-01T01:31:22.874Z,18.58
2023-04-01T01:31:54.405Z,18.56
2023-04-01T01:32:25.929Z,18.58
2023-04-01T01:32:57.457Z,18.57
2023-04-01T01:33:28.920Z,18.56
2023-04-01T01:34:00.320Z,18.54
2023-04-01T01:34:31.717Z,18.54
2023-04-01T01:35:03.135Z,18.55
2023-04-01T01:35:34.836Z,18.55
2023-04-01T01:36:06.533Z,18.54
2023-04-01T01:36:37.929Z,18.53
2023-04-01T01:37:09.338Z,18.54
2023-04-01T01:37:40.749Z,18.56
2023-04-01T01:38:12.142Z,18.55
2023-04-01T01:38:43.560Z,18.54
2023-04-01T01:39:14.988Z,18.55
2023-04-01T01:39:46.396Z,18.54
2023-04-01T01:40:17.910Z,18.54
2023-04-01T01:40:49.337Z,18.52
2023-04-01T01:41:20.832Z,18.52
2023-04-01T01:41:52.248Z,18.53
2023-04-01T01:42:23.684Z,18.53
2023-04-01T01:42:55.114Z,18.52
2023-04-01T01:43:26.526Z,18.49
2023-04-01T01:43:57.923Z,18.49
2023-04-01T01:44:29.346Z,18.52
2023-04-01T01:45:00.741Z,18.52
2023-04-01T01:45:32.344Z,18.53
2023-04-01T01:46:03.964Z,18.51
2023-04-01T01:46:35.389Z,18.48
2023-04-01T01:47:06.833Z,18.51
2023-04-01T01:47:38.339Z,18.48
2023-04-01T01:48:09.905Z,18.48
2023-04-01T01:48:41.344Z,18.46
2023-04-01T01:49:12.760Z,18.48
2023-04-01T01:49:44.180Z,18.48
2023-04-01T01:50:15.599Z,18.48
2023-04-01T01:50:47.056Z,18.46
2023-04-01T01:51:18.474Z,18.46
2023-04-01T01:51:49.905Z,18.47
2023-04-01T01:52:21.314Z,18.47
2023-04-01T01:52:52.736Z,18.47
2023-04-01T01:53:24.186Z,18.45
2023-04-01T01:53:55.619Z,18.44
2023-04-01T01:54:27.027Z,18.43
2023-04-01T01:54:58.430Z,18.43
2023-04-01T01:55:30.139Z,18.45
2023-04-01T01:56:01.723Z,18.41
2023-04-01T01:56:33.130Z,18.43
2023-04-01T01:57:04.564Z,18.42
2023-04-01T01:57:36.055Z,18.42
2023-04-01T01:58:07.513Z,18.41
2023-04-01T01:58:38.925Z,18.42
2023-04-01T01:59:10.333Z,18.44
2023-04-01T01:59:41.826Z,18.43
2023-04-01T02:00:13.233Z,18.41
2023-04-01T02:00:44.637Z,18.42
2023-04-01T02:01:16.084Z,18.41
2023-04-01T02:01:47.628Z,18.41
2023-04-01T02:02:19.085Z,18.41
2023-04-01T02:02:50.498Z,18.39
2023-04-01T02:03:21.961Z,18.39
2023-04-01T02:03:53.364Z,18.40
2023-04-01T02:04:24.846Z,18.40
2023-04-01T02:04:56.399Z,18.40
2023-04-01T02:05:27.903Z,18.41
2023-04-01T02:05:59.316Z,18.41
2023-04-01T02:06:30.772Z,18.39
2023-04-01T02:07:02.179Z,18.40
2023-04-01T02:07:33.594Z,18.39
2023-04-01T02:08:05.016Z,18.40
2023-04-01T02:08:36.440Z,18.39
2023-04-01T02:09:07.873Z,18.40
2023-04-01T02:09:39.315Z,18.39
2023-04-01T02:10:10.723Z,18.38
2023-04-01T02:10:42.131Z,18.39
2023-04-01T02:11:13.563Z,18.39
2023-04-01T02:11:45.052Z,18.38
2023-04-01T02:12:16.479Z,18.38
2023-04-01T02:12:47.886Z,18.38
2023-04-01T02:13:19.298Z,18.38
2023-04-01T02:13:50.718Z,18.35
2023-04-01T02:14:22.113Z,18.38
2023-04-01T02:14:53.516Z,18.37
2023-04-01T02:15:24.922Z,18.37
2023-04-01T02:15:56.332Z,18.38
2023-04-01T02:16:27.939Z,18.37
2023-04-01T02:16:59.506Z,18.37
2023-04-01T02:17:30.965Z,18.38
2023-04-01T02:18:02.409Z,18.38
2023-04-01T02:18:33.910Z,18.37
2023-04-01T02:19:05.381Z,18.37
2023-04-01T02:19:36.793Z,18.37
2023-04-01T02:20:08.266Z,18.36
2023-04-01T02:20:39.689Z,18.38
2023-04-01T02:21:11.094Z,18.38
2023-04-01T02:21:42.516Z,18.36
2023-04-01T02:22:13.957Z,18.35
2023-04-01T02:22:45.426Z,18.33
2023-04-01T02:23:16.853Z,18.35
2023-04-01T02:23:48.249Z,18.36
2023-04-01T02:24:19.647Z,18.34
2023-04-01T02:24:51.048Z,18.33
2023-04-01T02:25:22.451Z,18.33
2023-04-01T02:25:53.848Z,18.35
2023-04-01T02:26:25.243Z,18.33
2023-04-01T02:26:56.665Z,18.33
2023-04-01T02:27:28.104Z,18.32
2023-04-01T02:27:59.524Z,18.33
2023-04-01T02:28:30.937Z,18.34
2023-04-01T02:29:02.375Z,18.33
2023-04-01T02:29:33.778Z,18.33
2023-04-01T02:30:05.212Z,18.33
2023-04-01T02:30:36.631Z,18.33
2023-04-01T02:31:08.104Z,18.33
2023-04-01T02:31:39.582Z,18.31
2023-04-01T02:32:11.133Z,18.32
2023-04-01T02:32:42.603Z,18.33
2023-04-01T02:33:14.110Z,18.33
2023-04-01T02:33:45.571Z,18.32
2023-04-01T02:34:16.960Z,18.32
2023-04-01T02:34:48.355Z,18.32
2023-04-01T02:35:19.755Z,18.32
2023-04-01T02:35:51.171Z,18.32
2023-04-01T02:36:22.639Z,18.32
2023-04-01T02:36:54.046Z,18.31
2023-04-01T02:37:25.471Z,18.31
2023-04-01T02:37:56.887Z,18.30
2023-04-01T02:38:28.311Z,18.30
2023-04-01T02:38:59.730Z,18.30
2023-04-01T02:39:31.128Z,18.30
2023-04-01T02:40:02.538Z,18.28
2023-04-01T02:40:33.950Z,18.29
2023-04-01T02:41:05.347Z,18.28
2023-04-01T02:41:36.768Z,18.29
2023-04-01T02:42:08.195Z,18.28
2023-04-01T02:42:39.627Z,18.28
2023-04-01T02:43:11.023Z,18.29
2023-04-01T02:43:42.450Z,18.29
2023-04-01T02:44:13.883Z,18.28
2023-04-01T02:44:45.351Z,18.27
2023-04-01T02:45:16.772Z,18.27
2023-04-01T02:45:48.200Z,18.28
2023-04-01T02:46:19.715Z,18.28
2023-04-01T02:46:51.206Z,18.24
2023-04-01T02:47:22.682Z,18.25
2023-04-01T02:47:54.270Z,18.25
2023-04-01T02:48:25.737Z,18.25
2023-04-01T02:48:57.129Z,18.25
2023-04-01T02:49:28.542Z,18.26
2023-04-01T02:49:59.975Z,18.26
2023-04-01T02:50:31.395Z,18.24
2023-04-01T02:51:02.856Z,18.24
2023-04-01T02:51:34.273Z,18.23
2023-04-01T02:52:05.672Z,18.24
2023-04-01T02:52:37.093Z,18.22
2023-04-01T02:53:08.490Z,18.24
2023-04-01T02:53:39.879Z,18.23
2023-04-01T02:54:11.272Z,18.24
2023-04-01T02:54:42.686Z,18.23
2023-04-01T02:55:14.079Z,18.23
2023-04-01T02:55:45.506Z,18.23
2023-04-01T02:56:16.975Z,18.22
2023-04-01T02:56:48.396Z,18.20
2023-04-01T02:57:19.875Z,18.22
2023-04-01T02:57:51.326Z,18.22
2023-04-01T02:58:22.756Z,18.20
2023-04-01T02:58:54.164Z,18.20
2023-04-01T02:59:25.584Z,18.21
2023-04-01T02:59:56.992Z,18.20
2023-04-01T03:00:28.386Z,18.23
2023-04-01T03:00:59.871Z,18.22
2023-04-01T03:01:31.359Z,18.21
2023-04-01T03:02:02.893Z,18.21
2023-04-01T03:02:34.384Z,18.22
2023-04-01T03:03:05.877Z,18.20
2023-04-01T03:03:37.424Z,18.21
2023-04-01T03:04:08.863Z,18.19
2023-04-01T03:04:40.263Z,18.20
2023-04-01T03:05:11.691Z,18.19
2023-04-01T03:05:43.097Z,18.19
2023-04-01T03:06:14.498Z,18.20
2023-04-01T03:06:45.907Z,18.19
2023-04-01T03:07:17.345Z,18.18
2023-04-01T03:07:48.764Z,18.18
2023-04-01T03:08:20.220Z,18.17
2023-04-01T03:08:51.606Z,18.18
2023-04-01T03:09:23.002Z,18.17
2023-04-01T03:09:54.404Z,18.17
2023-04-01T03:10:25.806Z,18.17
2023-04-01T03:10:59.063Z,18.15
2023-04-01T03:11:30.983Z,18.16
2023-04-01T03:12:02.388Z,18.16
2023-04-01T03:12:33.785Z,18.14
2023-04-01T03:13:05.196Z,18.15
2023-04-01T03:13:36.611Z,18.14
2023-04-01T03:14:08.035Z,18.11
2023-04-01T03:14:39.442Z,18.12
2023-04-01T03:15:11.726Z,18.13
2023-04-01T03:15:43.184Z,18.13
2023-04-01T03:16:14.620Z,18.13
2023-04-01T03:16:46.139Z,18.12
2023-04-01T03:17:17.570Z,18.12
2023-04-01T03:17:49.011Z,18.12
2023-04-01T03:18:20.556Z,18.13
2023-04-01T03:18:51.967Z,18.10
2023-04-01T03:19:23.362Z,18.10
2023-04-01T03:19:54.810Z,18.10
2023-04-01T03:20:26.204Z,18.09
2023-04-01T03:20:57.629Z,18.11
2023-04-01T03:21:29.067Z,18.11
2023-04-01T03:22:00.486Z,18.11
2023-04-01T03:22:31.884Z,18.09
2023-04-01T03:23:03.293Z,18.08
2023-04-01T03:23:34.712Z,18.08
2023-04-01T03:24:06.124Z,18.08
2023-04-01T03:24:37.541Z,18.09
2023-04-01T03:25:08.958Z,18.08
2023-04-01T03:25:40.369Z,18.08
2023-04-01T03:26:11.781Z,18.08
2023-04-01T03:26:43.196Z,18.08
2023-04-01T03:27:14.592Z,18.07
2023-04-01T03:27:46.008Z,18.06
2023-04-01T03:28:17.419Z,18.08
2023-04-01T03:28:48.838Z,18.05
2023-04-01T03:29:20.233Z,18.06
2023-04-01T03:29:51.693Z,18.06
2023-04-01T03:30:23.201Z,18.05
2023-04-01T03:30:54.650Z,18.05
2023-04-01T03:31:26.158Z,18.04
2023-04-01T03:31:57.603Z,18.05
2023-04-01T03:32:29.045Z,18.05
2023-04-01T03:33:00.568Z,18.04
2023-04-01T03:33:32.023Z,18.04
2023-04-01T03:34:03.466Z,18.04
2023-04-01T03:34:34.865Z,18.03
2023-04-01T03:35:06.279Z,18.01
2023-04-01T03:35:37.695Z,18.02
2023-04-01T03:36:09.100Z,18.02
2023-04-01T03:36:40.548Z,18.02
2023-04-01T03:37:12.012Z,18.03
2023-04-01T03:37:43.441Z,18.03
2023-04-01T03:38:14.853Z,18.03
2023-04-01T03:38:46.293Z,18.02
2023-04-01T03:39:17.687Z,18.03
2023-04-01T03:39:49.089Z,18.01
2023-04-01T03:40:20.510Z,18.02
2023-04-01T03:40:51.911Z,18.02
2023-04-01T03:41:23.332Z,18.03
2023-04-01T03:41:54.748Z,18.03
2023-04-01T03:42:26.181Z,18.03
2023-04-01T03:42:57.697Z,18.02
2023-04-01T03:43:29.158Z,18.02
2023-04-01T03:44:00.602Z,18.02
2023-04-01T03:44:32.089Z,18.01
2023-04-01T03:45:03.522Z,18.01
2023-04-01T03:45:35.052Z,18.01
2023-04-01T03:46:06.530Z,18.02
2023-04-01T03:46:38.126Z,17.99
2023-04-01T03:47:09.713Z,18.01
2023-04-01T03:47:41.152Z,18.00
2023-04-01T03:48:12.683Z,18.00
2023-04-01T03:48:44.105Z,17.99
2023-04-01T03:49:15.546Z,18.00
2023-04-01T03:49:46.969Z,18.01
2023-04-01T03:50:18.371Z,18.00
2023-04-01T03:50:49.775Z,17.99
2023-04-01T03:51:21.172Z,17.99
2023-04-01T03:51:52.593Z,17.99
2023-04-01T03:52:24.012Z,18.01
2023-04-01T03:52:55.422Z,17.98
2023-04-01T03:53:26.864Z,17.99
2023-04-01T03:53:58.301Z,17.99
2023-04-01T03:54:29.718Z,17.98
2023-04-01T03:55:01.168Z,17.98
2023-04-01T03:55:32.751Z,17.98
2023-04-01T03:56:04.283Z,17.98
2023-04-01T03:56:35.686Z,17.97
2023-04-01T03:57:07.189Z,17.98
2023-04-01T03:57:38.647Z,17.97
2023-04-01T03:58:10.060Z,17.96
2023-04-01T03:58:41.468Z,17.95
2023-04-01T03:59:12.898Z,17.96
2023-04-01T03:59:44.315Z,17.96
2023-04-01T04:00:15.708Z,17.97
2023-04-01T04:00:47.135Z,17.96
2023-04-01T04:01:18.557Z,17.96
2023-04-01T04:01:49.955Z,17.94
2023-04-01T04:02:21.437Z,17.96
2023-04-01T04:02:52.969Z,17.96
2023-04-01T04:03:24.469Z,17.94
2023-04-01T04:03:56.019Z,17.95
2023-04-01T04:04:27.597Z,17.94
2023-04-01T04:04:59.024Z,17.95
2023-04-01T04:05:30.515Z,17.96
2023-04-01T04:06:01.935Z,17.92
2023-04-01T04:06:33.339Z,17.93
2023-04-01T04:07:04.760Z,17.94
2023-04-01T04:07:36.174Z,17.94
2023-04-01T04:08:07.599Z,17.91
2023-04-01T04:08:38.993Z,17.93
2023-04-01T04:09:10.390Z,17.94
2023-04-01T04:09:41.837Z,17.94
2023-04-01T04:10:13.370Z,17.93
2023-04-01T04:10:44.789Z,17.93
2023-04-01T04:11:16.201Z,17.91
2023-04-01T04:11:47.607Z,17.92
2023-04-01T04:12:19.008Z,17.92
2023-04-01T04:12:50.409Z,17.92
2023-04-01T04:13:21.809Z,17.91
2023-04-01T04:13:53.252Z,17.92
2023-04-01T04:14:24.659Z,17.92
2023-04-01T04:14:56.139Z,17.92
2023-04-01T04:15:27.569Z,17.92
2023-04-01T04:15:59.075Z,17.91
2023-04-01T04:16:30.535Z,17.91
2023-04-01T04:17:02.037Z,17.91
2023-04-01T04:17:33.481Z,17.91
2023-04-01T04:18:04.946Z,17.93
2023-04-01T04:18:36.360Z,17.91
2023-04-01T04:19:07.753Z,17.90
2023-04-01T04:19:39.174Z,17.90
2023-04-01T04:20:10.610Z,17.90
2023-04-01T04:20:42.030Z,17.89
2023-04-01T04:21:13.418Z,17.90
2023-04-01T04:21:44.799Z,17.89
2023-04-01T04:22:16.218Z,17.89
2023-04-01T04:22:47.635Z,17.89
2023-04-01T04:23:19.108Z,17.89
2023-04-01T04:23:50.507Z,17.89
2023-04-01T04:24:21.902Z,17.89
2023-04-01T04:24:53.317Z,17.89
2023-04-01T04:25:24.762Z,17.89
2023-04-01T04:25:56.177Z,17.89
2023-04-01T04:26:27.591Z,17.89
2023-04-01T04:26:58.982Z,17.89
2023-04-01T04:27:30.406Z,17.88
2023-04-01T04:28:01.820Z,17.89
2023-04-01T04:28:33.243Z,17.89
2023-04-01T04:29:04.670Z,17.90
2023-04-01T04:29:36.070Z,17.90
2023-04-01T04:30:07.499Z,17.90
2023-04-01T04:30:38.899Z,17.90
2023-04-01T04:31:10.341Z,17.90
2023-04-01T04:31:41.845Z,17.90
2023-04-01T04:32:13.268Z,17.90
2023-04-01T04:32:44.717Z,17.90
2023-04-01T04:33:16.132Z,17.90
2023-04-01T04:33:47.528Z,17.90
2023-04-01T04:34:18.954Z,17.90
2023-04-01T04:34:50.356Z,17.89
2023-04-01T04:35:21.787Z,17.90
2023-04-01T04:35:53.225Z,17.91
2023-04-01T04:36:24.767Z,17.90
2023-04-01T04:36:56.182Z,17.91
2023-04-01T04:37:27.581Z,17.92
2023-04-01T04:37:58.969Z,17.91
2023-04-01T04:38:30.368Z,17.92
2023-04-01T04:39:01.780Z,17.92
2023-04-01T04:39:33.214Z,17.92
2023-04-01T04:40:04.654Z,17.93
2023-04-01T04:40:36.115Z,17.93
2023-04-01T04:41:07.506Z,17.92
2023-04-01T04:41:38.910Z,17.93
2023-04-01T04:42:10.309Z,17.92
2023-04-01T04:42:41.712Z,17.94
2023-04-01T04:43:13.127Z,17.94
2023-04-01T04:43:44.528Z,17.95
2023-04-01T04:44:16.008Z,17.94
2023-04-01T04:44:47.431Z,17.95
2023-04-01T04:45:18.880Z,17.95
2023-04-01T04:45:50.313Z,17.95
2023-04-01T04:46:21.720Z,17.95
2023-04-01T04:46:53.205Z,17.96
2023-04-01T04:47:24.682Z,17.96
2023-04-01T04:47:56.158Z,17.97
2023-04-01T04:48:27.601Z,17.96
2023-04-01T04:48:59.011Z,17.97
2023-04-01T04:49:30.431Z,17.97
2023-04-01T04:50:01.828Z,17.97
2023-04-01T04:50:33.269Z,17.98
2023-04-01T04:51:04.677Z,17.98
2023-04-01T04:51:36.076Z,17.99
2023-04-01T04:52:07.507Z,17.99
2023-04-01T04:52:38.931Z,17.99
2023-04-01T04:53:10.338Z,17.99
2023-04-01T04:53:41.747Z,18.00
2023-04-01T04:54:13.140Z,18.00
2023-04-01T04:54:44.551Z,18.01
2023-04-01T04:55:16.009Z,18.00
2023-04-01T04:55:47.552Z,18.01
2023-04-01T04:56:18.987Z,18.01
2023-04-01T04:56:50.481Z,18.01
2023-04-01T04:57:21.947Z,18.00
2023-04-01T04:57:53.366Z,18.01
2023-04-01T04:58:24.777Z,18.01
2023-04-01T04:58:56.179Z,18.01
2023-04-01T04:59:27.612Z,18.01
2023-04-01T04:59:59.025Z,18.02
2023-04-01T05:00:30.430Z,18.02
2023-04-01T05:01:01.901Z,18.02
2023-04-01T05:01:33.381Z,18.02
2023-04-01T05:02:04.875Z,18.03
2023-04-01T05:02:36.397Z,18.02
2023-04-01T05:03:07.975Z,18.02
2023-04-01T05:03:39.589Z,18.01
2023-04-01T05:04:11.046Z,18.02
2023-04-01T05:04:42.439Z,18.02
2023-04-01T05:05:13.857Z,18.01
2023-04-01T05:05:45.265Z,18.02
2023-04-01T05:06:16.716Z,18.02
2023-04-01T05:06:48.125Z,18.01
2023-04-01T05:07:19.561Z,18.02
2023-04-01T05:07:50.986Z,18.02
2023-04-01T05:08:22.379Z,18.02
2023-04-01T05:08:53.796Z,18.03
2023-04-01T05:09:25.205Z,18.03
2023-04-01T05:09:56.619Z,18.03
2023-04-01T05:10:28.034Z,18.02
2023-04-01T05:10:59.459Z,18.03
2023-04-01T05:11:30.881Z,18.03
2023-04-01T05:12:02.313Z,18.04
2023-04-01T05:12:33.733Z,18.03
2023-04-01T05:13:05.187Z,18.03
2023-04-01T05:13:36.617Z,18.04
2023-04-01T05:14:08.024Z,18.04
2023-04-01T05:14:39.432Z,18.04
2023-04-01T05:15:10.836Z,18.04
2023-04-01T05:15:42.245Z,18.05
2023-04-01T05:16:13.734Z,18.05
2023-04-01T05:16:45.226Z,18.04
2023-04-01T05:17:16.686Z,18.04
2023-04-01T05:17:48.137Z,18.05
2023-04-01T05:18:19.569Z,18.04
2023-04-01T05:18:50.990Z,18.04
2023-04-01T05:19:22.412Z,18.04
2023-04-01T05:19:53.806Z,18.05
2023-04-01T05:20:25.234Z,18.06
2023-04-01T05:20:56.659Z,18.06
2023-04-01T05:21:28.116Z,18.06
2023-04-01T05:21:59.510Z,18.06
2023-04-01T05:22:30.936Z,18.06
2023-04-01T05:23:02.359Z,18.05
2023-04-01T05:23:33.768Z,18.06
2023-04-01T05:24:05.170Z,18.05
2023-04-01T05:24:36.587Z,18.04
2023-04-01T05:25:07.992Z,18.05
2023-04-01T05:25:39.387Z,18.05
2023-04-01T05:26:10.822Z,18.05
2023-04-01T05:26:42.239Z,18.06
2023-04-01T05:27:13.657Z,18.08
2023-04-01T05:27:45.057Z,18.08
2023-04-01T05:28:16.524Z,18.08
2023-04-01T05:28:47.959Z,18.08
2023-04-01T05:29:19.378Z,18.07
2023-04-01T05:29:50.785Z,18.08
2023-04-01T05:30:22.191Z,18.08
2023-04-01T05:30:53.642Z,18.08
2023-04-01T05:31:25.380Z,18.07
2023-04-01T05:31:56.809Z,18.07
2023-04-01T05:32:28.240Z,18.07
2023-04-01T05:32:59.804Z,18.08
2023-04-01T05:33:31.257Z,18.06
2023-04-01T05:34:02.710Z,18.06
2023-04-01T05:34:34.121Z,18.07
2023-04-01T05:35:05.552Z,18.07
2023-04-01T05:35:37.061Z,18.08
2023-04-01T05:36:08.573Z,18.08
2023-04-01T05:36:40.032Z,18.05
2023-04-01T05:37:11.441Z,18.08
2023-04-01T05:37:42.863Z,18.07
2023-04-01T05:38:14.280Z,18.06
2023-04-01T05:38:45.678Z,18.07
2023-04-01T05:39:17.075Z,18.08
2023-04-01T05:39:48.496Z,18.09
2023-04-01T05:40:19.920Z,18.08
2023-04-01T05:40:51.338Z,18.08
2023-04-01T05:41:22.751Z,18.08
2023-04-01T05:41:54.215Z,18.08
2023-04-01T05:42:25.610Z,18.09
2023-04-01T05:42:57.014Z,18.10
2023-04-01T05:43:28.424Z,18.09
2023-04-01T05:43:59.823Z,18.10
2023-04-01T05:44:31.227Z,18.10
2023-04-01T05:45:02.647Z,18.09
2023-04-01T05:45:34.345Z,18.09
2023-04-01T05:46:06.018Z,18.09
2023-04-01T05:46:37.506Z,18.09
2023-04-01T05:47:09.055Z,18.09
2023-04-01T05:47:40.489Z,18.10
2023-04-01T05:48:11.920Z,18.10
2023-04-01T05:48:43.335Z,18.09
2023-04-01T05:49:14.754Z,18.11
2023-04-01T05:49:46.156Z,18.10
2023-04-01T05:50:17.573Z,18.12
2023-04-01T05:50:48.979Z,18.12
2023-04-01T05:51:20.378Z,18.13
2023-04-01T05:51:51.790Z,18.11
2023-04-01T05:52:23.216Z,18.12
2023-04-01T05:52:54.612Z,18.12
2023-04-01T05:53:26.033Z,18.12
2023-04-01T05:53:57.444Z,18.12
2023-04-01T05:54:28.854Z,18.12
2023-04-01T05:55:00.260Z,18.12
2023-04-01T05:55:31.995Z,18.13
2023-04-01T05:56:03.663Z,18.14
2023-04-01T05:56:35.360Z,18.13
2023-04-01T05:57:06.868Z,18.13
2023-04-01T05:57:38.353Z,18.15
2023-04-01T05:58:09.795Z,18.12
2023-04-01T05:58:41.229Z,18.15
2023-04-01T05:59:12.652Z,18.14
2023-04-01T05:59:44.065Z,18.15
2023-04-01T06:00:15.505Z,18.15
2023-04-01T06:00:47.917Z,18.15
2023-04-01T06:01:19.425Z,18.15
2023-04-01T06:01:50.842Z,18.14
2023-04-01T06:02:22.342Z,18.15
2023-04-01T06:02:53.909Z,18.15
2023-04-01T06:03:25.641Z,18.16
2023-04-01T06:03:57.314Z,18.15
2023-04-01T06:04:28.937Z,18.16
2023-04-01T06:05:00.338Z,18.17
2023-04-01T06:05:32.176Z,18.16
2023-04-01T06:06:03.717Z,18.16
2023-04-01T06:06:35.146Z,18.17
2023-04-01T06:07:06.561Z,18.16
2023-04-01T06:07:37.974Z,18.17
2023-04-01T06:08:09.397Z,18.17
2023-04-01T06:08:40.815Z,18.16
2023-04-01T06:09:12.222Z,18.16
2023-04-01T06:09:43.617Z,18.16
2023-04-01T06:10:15.019Z,18.17
2023-04-01T06:10:46.423Z,18.17
2023-04-01T06:11:17.844Z,18.18
2023-04-01T06:11:49.252Z,18.17
2023-04-01T06:12:21.052Z,18.17
2023-04-01T06:12:52.927Z,18.17
2023-04-01T06:13:24.911Z,18.18
2023-04-01T06:13:56.738Z,18.18
2023-04-01T06:14:28.646Z,18.18
2023-04-01T06:15:00.524Z,18.19
2023-04-01T06:15:32.671Z,18.19
2023-04-01T06:16:04.458Z,18.20
2023-04-01T06:16:35.944Z,18.20
2023-04-01T06:17:07.381Z,18.20
2023-04-01T06:17:38.857Z,18.20
2023-04-01T06:18:10.308Z,18.22
2023-04-01T06:18:41.778Z,18.22
2023-04-01T06:19:13.215Z,18.21
2023-04-01T06:19:44.616Z,18.23
2023-04-01T06:20:16.025Z,18.24
2023-04-01T06:20:47.424Z,18.25
2023-04-01T06:21:18.878Z,18.25
2023-04-01T06:21:50.281Z,18.24
2023-04-01T06:22:21.679Z,18.24
2023-04-01T06:22:53.128Z,18.25
2023-04-01T06:23:24.567Z,18.25
2023-04-01T06:23:55.999Z,18.26
2023-04-01T06:24:27.551Z,18.27
2023-04-01T06:24:58.977Z,18.27
2023-04-01T06:25:30.378Z,18.28
2023-04-01T06:26:01.820Z,18.28
2023-04-01T06:26:33.257Z,18.29
2023-04-01T06:27:04.676Z,18.30
2023-04-01T06:27:36.131Z,18.30
2023-04-01T06:28:09.010Z,18.29
2023-04-01T06:28:40.692Z,18.30
2023-04-01T06:29:12.093Z,18.31
2023-04-01T06:29:43.498Z,18.30
2023-04-01T06:30:14.955Z,18.31
2023-04-01T06:30:46.349Z,18.30
2023-04-01T06:31:17.877Z,18.32
2023-04-01T06:31:49.484Z,18.32
2023-04-01T06:32:21.017Z,18.32
2023-04-01T06:32:52.678Z,18.33
2023-04-01T06:33:24.185Z,18.33
2023-04-01T06:33:55.603Z,18.33
2023-04-01T06:34:27.013Z,18.32
2023-04-01T06:34:58.427Z,18.32
2023-04-01T06:35:29.872Z,18.33
2023-04-01T06:36:01.369Z,18.34
2023-04-01T06:36:32.841Z,18.35
2023-04-01T06:37:04.298Z,18.35
2023-04-01T06:37:35.704Z,18.34
2023-04-01T06:38:07.125Z,18.35
2023-04-01T06:38:38.558Z,18.35
2023-04-01T06:39:11.183Z,18.35
2023-04-01T06:39:42.811Z,18.35
2023-04-01T06:40:14.228Z,18.34
2023-04-01T06:40:45.659Z,18.35
2023-04-01T06:41:17.067Z,18.34
2023-04-01T06:41:48.525Z,18.36
2023-04-01T06:42:19.925Z,18.35
2023-04-01T06:42:51.314Z,18.34
2023-04-01T06:43:22.718Z,18.36
2023-04-01T06:43:54.114Z,18.37
2023-04-01T06:44:25.553Z,18.36
2023-04-01T06:44:56.974Z,18.36
2023-04-01T06:45:28.426Z,18.37